sensor_id;sensor_type;location;lat;lon;timestamp;temperature;humidity
6662;DHT22;3367;48.714;8.994;2023-05-10T00:00:26;13.20;1.00
6662;DHT22;3367;48.714;8.994;2023-05-10T00:02:53;13.10;1.00
6662;DHT22;3367;48.714;8.994;2023-05-10T00:05:20;13.10;99.90
6662;DHT22;3367;48.714;8.994;2023-05-10T00:07:46;13.10;99.90
6662;DHT22;3367;48.714;8.994;2023-05-10T00:10:13;13.00;99.90
6662;DHT22;3367;48.714;8.994;2023-05-10T00:12:40;13.10;99.90
6662;DHT22;3367;48.714;8.994;2023-05-10T00:15:08;13.00;99.90
6662;DHT22;3367;48.714;8.994;2023-05-10T00:17:37;12.90;1.00
6662;DHT22;3367;48.714;8.994;2023-05-10T00:20:05;12.80;1.00
6662;DHT22;3367;48.714;8.994;2023-05-10T00:22:32;12.80;1.00
6662;DHT22;3367;48.714;8.994;2023-05-10T00:24:59;12.80;1.00
6662;DHT22;3367;48.714;8.994;2023-05-10T00:27:25;12.70;1.00
6662;DHT22;3367;48.714;8.994;2023-05-10T00:29:52;12.70;1.00
6662;DHT22;3367;48.714;8.994;2023-05-10T00:32:19;12.70;1.00
6662;DHT22;3367;48.714;8.994;2023-05-10T00:34:47;12.70;1.00
6662;DHT22;3367;48.714;8.994;2023-05-10T00:37:14;12.70;1.00
6662;DHT22;3367;48.714;8.994;2023-05-10T00:39:40;12.60;1.00
6662;DHT22;3367;48.714;8.994;2023-05-10T00:42:07;12.60;1.00
6662;DHT22;3367;48.714;8.994;2023-05-10T00:44:34;12.60;1.00
6662;DHT22;3367;48.714;8.994;2023-05-10T00:47:00;12.60;1.00
6662;DHT22;3367;48.714;8.994;2023-05-10T00:49:27;12.50;1.00
6662;DHT22;3367;48.714;8.994;2023-05-10T00:51:56;12.60;1.00
6662;DHT22;3367;48.714;8.994;2023-05-10T00:54:23;12.60;1.00
6662;DHT22;3367;48.714;8.994;2023-05-10T00:56:49;12.60;1.00
6662;DHT22;3367;48.714;8.994;2023-05-10T00:59:16;12.60;1.00
6662;DHT22;3367;48.714;8.994;2023-05-10T01:01:43;12.50;1.00
6662;DHT22;3367;48.714;8.994;2023-05-10T01:04:11;12.60;1.00
6662;DHT22;3367;48.714;8.994;2023-05-10T01:06:38;12.50;1.00
6662;DHT22;3367;48.714;8.994;2023-05-10T01:09:06;12.50;1.00
6662;DHT22;3367;48.714;8.994;2023-05-10T01:11:33;12.50;1.00
6662;DHT22;3367;48.714;8.994;2023-05-10T01:14:02;12.50;1.00
6662;DHT22;3367;48.714;8.994;2023-05-10T01:16:31;12.50;1.00
6662;DHT22;3367;48.714;8.994;2023-05-10T01:18:58;12.60;1.00
6662;DHT22;3367;48.714;8.994;2023-05-10T01:21:32;12.50;1.00
6662;DHT22;3367;48.714;8.994;2023-05-10T01:24:34;12.40;1.00
6662;DHT22;3367;48.714;8.994;2023-05-10T01:27:14;12.50;1.00
6662;DHT22;3367;48.714;8.994;2023-05-10T01:32:48;12.50;99.90
6662;DHT22;3367;48.714;8.994;2023-05-10T01:35:25;12.40;99.90
6662;DHT22;3367;48.714;8.994;2023-05-10T01:37:59;12.40;99.90
6662;DHT22;3367;48.714;8.994;2023-05-10T01:40:35;12.40;99.90
6662;DHT22;3367;48.714;8.994;2023-05-10T01:43:04;12.40;99.90
6662;DHT22;3367;48.714;8.994;2023-05-10T01:45:36;12.40;99.90
6662;DHT22;3367;48.714;8.994;2023-05-10T01:48:06;12.40;99.90
6662;DHT22;3367;48.714;8.994;2023-05-10T01:50:36;12.30;99.90
6662;DHT22;3367;48.714;8.994;2023-05-10T01:53:06;12.30;99.90
6662;DHT22;3367;48.714;8.994;2023-05-10T01:55:35;12.30;99.90
6662;DHT22;3367;48.714;8.994;2023-05-10T01:58:10;12.30;99.90
6662;DHT22;3367;48.714;8.994;2023-05-10T02:00:42;12.30;1.00
6662;DHT22;3367;48.714;8.994;2023-05-10T02:03:11;12.30;99.90
6662;DHT22;3367;48.714;8.994;2023-05-10T02:05:39;12.30;1.00
6662;DHT22;3367;48.714;8.994;2023-05-10T02:08:07;12.20;1.00
6662;DHT22;3367;48.714;8.994;2023-05-10T02:10:34;12.20;1.00
6662;DHT22;3367;48.714;8.994;2023-05-10T02:13:02;12.30;1.00
6662;DHT22;3367;48.714;8.994;2023-05-10T02:15:30;12.20;1.00
6662;DHT22;3367;48.714;8.994;2023-05-10T02:17:58;12.30;1.00
6662;DHT22;3367;48.714;8.994;2023-05-10T02:20:27;12.20;1.00
6662;DHT22;3367;48.714;8.994;2023-05-10T02:22:56;12.20;1.00
6662;DHT22;3367;48.714;8.994;2023-05-10T02:25:24;12.20;1.00
6662;DHT22;3367;48.714;8.994;2023-05-10T02:27:54;12.30;1.00
6662;DHT22;3367;48.714;8.994;2023-05-10T02:30:22;12.20;1.00
6662;DHT22;3367;48.714;8.994;2023-05-10T02:32:49;12.20;99.90
6662;DHT22;3367;48.714;8.994;2023-05-10T02:35:17;12.10;99.90
6662;DHT22;3367;48.714;8.994;2023-05-10T02:37:45;12.10;99.90
6662;DHT22;3367;48.714;8.994;2023-05-10T02:40:13;12.10;99.90
6662;DHT22;3367;48.714;8.994;2023-05-10T02:42:42;12.10;99.90
6662;DHT22;3367;48.714;8.994;2023-05-10T02:45:12;12.10;99.90
6662;DHT22;3367;48.714;8.994;2023-05-10T02:47:39;12.10;99.90
6662;DHT22;3367;48.714;8.994;2023-05-10T02:50:07;12.10;1.00
6662;DHT22;3367;48.714;8.994;2023-05-10T02:52:39;12.10;1.00
6662;DHT22;3367;48.714;8.994;2023-05-10T02:55:09;12.00;1.00
6662;DHT22;3367;48.714;8.994;2023-05-10T02:57:42;12.10;1.00
6662;DHT22;3367;48.714;8.994;2023-05-10T03:00:10;12.00;1.00
6662;DHT22;3367;48.714;8.994;2023-05-10T03:02:37;12.10;1.00
6662;DHT22;3367;48.714;8.994;2023-05-10T03:05:04;12.10;1.00
6662;DHT22;3367;48.714;8.994;2023-05-10T03:07:32;12.10;1.00
6662;DHT22;3367;48.714;8.994;2023-05-10T03:09:59;12.20;1.00
6662;DHT22;3367;48.714;8.994;2023-05-10T03:12:47;12.20;1.00
6662;DHT22;3367;48.714;8.994;2023-05-10T03:15:21;12.20;1.00
6662;DHT22;3367;48.714;8.994;2023-05-10T03:17:54;12.30;1.00
6662;DHT22;3367;48.714;8.994;2023-05-10T03:20:24;12.20;1.00
6662;DHT22;3367;48.714;8.994;2023-05-10T03:22:55;12.20;1.00
6662;DHT22;3367;48.714;8.994;2023-05-10T03:25:24;12.20;99.90
6662;DHT22;3367;48.714;8.994;2023-05-10T03:27:54;12.20;99.90
6662;DHT22;3367;48.714;8.994;2023-05-10T03:30:21;12.30;99.90
6662;DHT22;3367;48.714;8.994;2023-05-10T03:32:48;12.30;99.90
6662;DHT22;3367;48.714;8.994;2023-05-10T03:35:14;12.20;99.90
6662;DHT22;3367;48.714;8.994;2023-05-10T03:37:41;12.20;99.90
6662;DHT22;3367;48.714;8.994;2023-05-10T03:40:09;12.30;99.90
6662;DHT22;3367;48.714;8.994;2023-05-10T03:42:36;12.20;99.90
6662;DHT22;3367;48.714;8.994;2023-05-10T03:45:05;12.30;99.90
6662;DHT22;3367;48.714;8.994;2023-05-10T03:47:32;12.30;99.90
6662;DHT22;3367;48.714;8.994;2023-05-10T03:49:59;12.30;99.90
6662;DHT22;3367;48.714;8.994;2023-05-10T03:52:25;12.30;99.90
6662;DHT22;3367;48.714;8.994;2023-05-10T03:54:52;12.20;99.90
6662;DHT22;3367;48.714;8.994;2023-05-10T03:57:19;12.30;99.90
6662;DHT22;3367;48.714;8.994;2023-05-10T03:59:45;12.20;99.90
6662;DHT22;3367;48.714;8.994;2023-05-10T04:02:13;12.20;99.90
6662;DHT22;3367;48.714;8.994;2023-05-10T04:04:40;12.10;1.00
6662;DHT22;3367;48.714;8.994;2023-05-10T04:07:07;12.10;1.00
6662;DHT22;3367;48.714;8.994;2023-05-10T04:09:35;12.10;1.00
6662;DHT22;3367;48.714;8.994;2023-05-10T04:12:01;12.10;1.00
6662;DHT22;3367;48.714;8.994;2023-05-10T04:14:28;12.10;1.00
6662;DHT22;3367;48.714;8.994;2023-05-10T04:16:55;12.10;1.00
6662;DHT22;3367;48.714;8.994;2023-05-10T04:19:23;12.00;1.00
6662;DHT22;3367;48.714;8.994;2023-05-10T04:21:50;12.10;1.00
6662;DHT22;3367;48.714;8.994;2023-05-10T04:24:16;12.10;1.00
6662;DHT22;3367;48.714;8.994;2023-05-10T04:26:43;12.10;1.00
6662;DHT22;3367;48.714;8.994;2023-05-10T04:29:11;12.10;1.00
6662;DHT22;3367;48.714;8.994;2023-05-10T04:31:37;12.20;1.00
6662;DHT22;3367;48.714;8.994;2023-05-10T04:34:04;12.20;1.00
6662;DHT22;3367;48.714;8.994;2023-05-10T04:36:32;12.20;1.00
6662;DHT22;3367;48.714;8.994;2023-05-10T04:39:01;12.20;1.00
6662;DHT22;3367;48.714;8.994;2023-05-10T04:41:29;12.20;1.00
6662;DHT22;3367;48.714;8.994;2023-05-10T04:43:56;12.20;1.00
6662;DHT22;3367;48.714;8.994;2023-05-10T04:46:22;12.40;1.00
6662;DHT22;3367;48.714;8.994;2023-05-10T04:48:49;12.30;1.00
6662;DHT22;3367;48.714;8.994;2023-05-10T04:51:16;12.40;1.00
6662;DHT22;3367;48.714;8.994;2023-05-10T04:53:44;12.30;1.00
6662;DHT22;3367;48.714;8.994;2023-05-10T04:56:10;12.30;99.90
6662;DHT22;3367;48.714;8.994;2023-05-10T04:58:37;12.40;99.90
6662;DHT22;3367;48.714;8.994;2023-05-10T05:01:07;12.30;99.90
6662;DHT22;3367;48.714;8.994;2023-05-10T05:03:34;12.40;99.90
6662;DHT22;3367;48.714;8.994;2023-05-10T05:06:01;12.50;99.90
6662;DHT22;3367;48.714;8.994;2023-05-10T05:08:28;12.50;99.90
6662;DHT22;3367;48.714;8.994;2023-05-10T05:10:56;12.60;99.90
6662;DHT22;3367;48.714;8.994;2023-05-10T05:13:23;12.60;99.90
6662;DHT22;3367;48.714;8.994;2023-05-10T05:15:50;12.60;99.90
6662;DHT22;3367;48.714;8.994;2023-05-10T05:18:16;12.60;99.90
6662;DHT22;3367;48.714;8.994;2023-05-10T05:20:43;12.70;99.90
6662;DHT22;3367;48.714;8.994;2023-05-10T05:23:10;12.80;90.70
6662;DHT22;3367;48.714;8.994;2023-05-10T05:25:36;12.70;71.90
6662;DHT22;3367;48.714;8.994;2023-05-10T05:28:05;12.70;93.90
6662;DHT22;3367;48.714;8.994;2023-05-10T05:30:31;12.70;1.00
6662;DHT22;3367;48.714;8.994;2023-05-10T05:32:58;12.70;1.00
6662;DHT22;3367;48.714;8.994;2023-05-10T05:35:25;12.70;1.00
6662;DHT22;3367;48.714;8.994;2023-05-10T05:37:51;12.70;1.00
6662;DHT22;3367;48.714;8.994;2023-05-10T05:40:18;12.70;1.00
6662;DHT22;3367;48.714;8.994;2023-05-10T05:42:45;12.80;1.00
6662;DHT22;3367;48.714;8.994;2023-05-10T05:45:13;12.80;99.90
6662;DHT22;3367;48.714;8.994;2023-05-10T05:47:40;12.80;99.90
6662;DHT22;3367;48.714;8.994;2023-05-10T05:50:07;12.90;1.00
6662;DHT22;3367;48.714;8.994;2023-05-10T05:52:34;13.00;1.00
6662;DHT22;3367;48.714;8.994;2023-05-10T05:55:01;13.00;99.90
6662;DHT22;3367;48.714;8.994;2023-05-10T05:57:28;13.00;99.90
6662;DHT22;3367;48.714;8.994;2023-05-10T05:59:55;13.10;99.90
6662;DHT22;3367;48.714;8.994;2023-05-10T06:02:23;13.20;99.90
6662;DHT22;3367;48.714;8.994;2023-05-10T06:04:50;13.30;1.00
6662;DHT22;3367;48.714;8.994;2023-05-10T06:07:17;13.30;1.00
6662;DHT22;3367;48.714;8.994;2023-05-10T06:09:43;13.30;1.00
6662;DHT22;3367;48.714;8.994;2023-05-10T06:12:10;13.20;1.00
6662;DHT22;3367;48.714;8.994;2023-05-10T06:14:38;13.30;1.00
6662;DHT22;3367;48.714;8.994;2023-05-10T06:17:04;13.20;1.00
6662;DHT22;3367;48.714;8.994;2023-05-10T06:19:33;13.10;1.00
6662;DHT22;3367;48.714;8.994;2023-05-10T06:22:00;13.20;1.00
6662;DHT22;3367;48.714;8.994;2023-05-10T06:24:26;13.20;1.00
6662;DHT22;3367;48.714;8.994;2023-05-10T06:26:53;13.30;1.00
6662;DHT22;3367;48.714;8.994;2023-05-10T06:29:20;13.30;1.00
6662;DHT22;3367;48.714;8.994;2023-05-10T06:31:47;13.40;1.00
6662;DHT22;3367;48.714;8.994;2023-05-10T06:34:14;13.30;1.00
6662;DHT22;3367;48.714;8.994;2023-05-10T06:36:42;13.20;1.00
6662;DHT22;3367;48.714;8.994;2023-05-10T06:39:08;13.40;1.00
6662;DHT22;3367;48.714;8.994;2023-05-10T06:41:37;13.20;1.00
6662;DHT22;3367;48.714;8.994;2023-05-10T06:44:03;13.20;99.90
6662;DHT22;3367;48.714;8.994;2023-05-10T06:46:30;13.20;1.00
6662;DHT22;3367;48.714;8.994;2023-05-10T06:48:57;13.30;1.00
6662;DHT22;3367;48.714;8.994;2023-05-10T06:51:24;13.40;99.90
6662;DHT22;3367;48.714;8.994;2023-05-10T06:53:52;13.40;99.90
6662;DHT22;3367;48.714;8.994;2023-05-10T06:56:18;13.50;99.90
6662;DHT22;3367;48.714;8.994;2023-05-10T06:58:46;13.80;99.90
6662;DHT22;3367;48.714;8.994;2023-05-10T07:01:13;13.80;45.50
6662;DHT22;3367;48.714;8.994;2023-05-10T07:03:40;14.00;1.00
6662;DHT22;3367;48.714;8.994;2023-05-10T07:06:07;14.00;99.90
6662;DHT22;3367;48.714;8.994;2023-05-10T07:08:34;14.10;1.00
6662;DHT22;3367;48.714;8.994;2023-05-10T07:11:03;14.20;1.00
6662;DHT22;3367;48.714;8.994;2023-05-10T07:13:30;14.30;1.00
6662;DHT22;3367;48.714;8.994;2023-05-10T07:15:57;14.40;1.00
6662;DHT22;3367;48.714;8.994;2023-05-10T07:18:24;14.40;99.90
6662;DHT22;3367;48.714;8.994;2023-05-10T07:20:51;14.60;99.90
6662;DHT22;3367;48.714;8.994;2023-05-10T07:23:18;14.70;1.00
6662;DHT22;3367;48.714;8.994;2023-05-10T07:25:46;14.60;1.00
6662;DHT22;3367;48.714;8.994;2023-05-10T07:28:14;14.70;1.00
6662;DHT22;3367;48.714;8.994;2023-05-10T07:30:42;14.80;1.00
6662;DHT22;3367;48.714;8.994;2023-05-10T07:33:09;14.80;1.00
6662;DHT22;3367;48.714;8.994;2023-05-10T07:35:37;14.80;1.00
6662;DHT22;3367;48.714;8.994;2023-05-10T07:38:03;14.70;99.90
6662;DHT22;3367;48.714;8.994;2023-05-10T07:40:30;14.70;99.90
6662;DHT22;3367;48.714;8.994;2023-05-10T07:42:57;14.80;1.00
6662;DHT22;3367;48.714;8.994;2023-05-10T07:45:26;14.80;12.00
6662;DHT22;3367;48.714;8.994;2023-05-10T07:47:53;14.90;99.90
6662;DHT22;3367;48.714;8.994;2023-05-10T07:50:20;14.90;1.00
6662;DHT22;3367;48.714;8.994;2023-05-10T07:52:47;14.90;99.90
6662;DHT22;3367;48.714;8.994;2023-05-10T07:55:14;15.00;1.00
6662;DHT22;3367;48.714;8.994;2023-05-10T07:57:42;15.00;1.00
6662;DHT22;3367;48.714;8.994;2023-05-10T08:00:11;15.20;56.30
6662;DHT22;3367;48.714;8.994;2023-05-10T08:02:40;15.20;1.00
6662;DHT22;3367;48.714;8.994;2023-05-10T08:05:07;15.20;1.00
6662;DHT22;3367;48.714;8.994;2023-05-10T08:07:34;15.30;1.00
6662;DHT22;3367;48.714;8.994;2023-05-10T08:10:01;15.40;1.00
6662;DHT22;3367;48.714;8.994;2023-05-10T08:12:27;15.50;1.00
6662;DHT22;3367;48.714;8.994;2023-05-10T08:14:54;15.40;1.00
6662;DHT22;3367;48.714;8.994;2023-05-10T08:17:21;15.40;1.00
6662;DHT22;3367;48.714;8.994;2023-05-10T08:19:49;15.40;1.00
6662;DHT22;3367;48.714;8.994;2023-05-10T08:22:15;15.40;1.00
6662;DHT22;3367;48.714;8.994;2023-05-10T08:24:42;15.20;99.90
6662;DHT22;3367;48.714;8.994;2023-05-10T08:27:09;15.30;1.00
6662;DHT22;3367;48.714;8.994;2023-05-10T08:29:35;15.30;99.90
6662;DHT22;3367;48.714;8.994;2023-05-10T08:32:02;15.20;99.90
6662;DHT22;3367;48.714;8.994;2023-05-10T08:34:29;15.20;99.90
6662;DHT22;3367;48.714;8.994;2023-05-10T08:36:57;15.30;99.90
6662;DHT22;3367;48.714;8.994;2023-05-10T08:39:24;15.20;99.90
6662;DHT22;3367;48.714;8.994;2023-05-10T08:41:53;15.30;99.90
6662;DHT22;3367;48.714;8.994;2023-05-10T08:44:20;15.40;1.00
6662;DHT22;3367;48.714;8.994;2023-05-10T08:46:51;15.60;94.00
6662;DHT22;3367;48.714;8.994;2023-05-10T08:49:20;15.60;1.00
6662;DHT22;3367;48.714;8.994;2023-05-10T08:51:50;15.60;1.00
6662;DHT22;3367;48.714;8.994;2023-05-10T08:54:19;15.70;1.00
6662;DHT22;3367;48.714;8.994;2023-05-10T08:56:46;15.70;1.00
6662;DHT22;3367;48.714;8.994;2023-05-10T08:59:13;15.80;1.00
6662;DHT22;3367;48.714;8.994;2023-05-10T09:01:42;15.90;1.00
6662;DHT22;3367;48.714;8.994;2023-05-10T09:04:09;15.80;1.00
6662;DHT22;3367;48.714;8.994;2023-05-10T09:06:37;15.60;1.00
6662;DHT22;3367;48.714;8.994;2023-05-10T09:09:04;15.60;1.00
6662;DHT22;3367;48.714;8.994;2023-05-10T09:11:32;15.70;1.00
6662;DHT22;3367;48.714;8.994;2023-05-10T09:14:00;15.80;1.00
6662;DHT22;3367;48.714;8.994;2023-05-10T09:16:27;15.90;1.00
6662;DHT22;3367;48.714;8.994;2023-05-10T09:18:54;15.80;1.00
6662;DHT22;3367;48.714;8.994;2023-05-10T09:21:20;16.00;1.00
6662;DHT22;3367;48.714;8.994;2023-05-10T09:23:47;16.10;1.00
6662;DHT22;3367;48.714;8.994;2023-05-10T09:26:15;16.30;1.00
6662;DHT22;3367;48.714;8.994;2023-05-10T09:28:54;16.40;99.90
6662;DHT22;3367;48.714;8.994;2023-05-10T09:31:22;16.50;99.90
6662;DHT22;3367;48.714;8.994;2023-05-10T09:33:50;16.70;1.00
6662;DHT22;3367;48.714;8.994;2023-05-10T09:36:17;16.90;99.90
6662;DHT22;3367;48.714;8.994;2023-05-10T09:38:48;16.90;99.90
6662;DHT22;3367;48.714;8.994;2023-05-10T09:41:19;16.90;99.90
6662;DHT22;3367;48.714;8.994;2023-05-10T09:43:46;16.90;98.60
6662;DHT22;3367;48.714;8.994;2023-05-10T09:46:15;17.10;1.00
6662;DHT22;3367;48.714;8.994;2023-05-10T09:48:43;17.20;1.00
6662;DHT22;3367;48.714;8.994;2023-05-10T09:51:10;17.40;1.00
6662;DHT22;3367;48.714;8.994;2023-05-10T09:53:37;17.40;1.00
6662;DHT22;3367;48.714;8.994;2023-05-10T09:56:04;17.40;1.00
6662;DHT22;3367;48.714;8.994;2023-05-10T09:58:30;17.30;1.00
6662;DHT22;3367;48.714;8.994;2023-05-10T10:00:57;17.20;1.00
6662;DHT22;3367;48.714;8.994;2023-05-10T10:03:25;17.50;1.00
6662;DHT22;3367;48.714;8.994;2023-05-10T10:05:52;17.40;1.00
6662;DHT22;3367;48.714;8.994;2023-05-10T10:08:21;17.50;1.00
6662;DHT22;3367;48.714;8.994;2023-05-10T10:10:48;17.60;1.00
6662;DHT22;3367;48.714;8.994;2023-05-10T10:13:15;17.50;1.00
6662;DHT22;3367;48.714;8.994;2023-05-10T10:15:42;17.40;1.00
6662;DHT22;3367;48.714;8.994;2023-05-10T10:18:13;17.60;1.00
6662;DHT22;3367;48.714;8.994;2023-05-10T10:20:45;17.70;1.00
6662;DHT22;3367;48.714;8.994;2023-05-10T10:23:12;17.90;1.00
6662;DHT22;3367;48.714;8.994;2023-05-10T10:25:39;18.00;1.00
6662;DHT22;3367;48.714;8.994;2023-05-10T10:28:15;18.20;1.00
6662;DHT22;3367;48.714;8.994;2023-05-10T10:30:45;18.40;1.00
6662;DHT22;3367;48.714;8.994;2023-05-10T10:33:40;18.30;1.00
6662;DHT22;3367;48.714;8.994;2023-05-10T10:36:12;18.30;1.00
6662;DHT22;3367;48.714;8.994;2023-05-10T10:38:59;18.30;1.00
6662;DHT22;3367;48.714;8.994;2023-05-10T10:41:29;17.90;1.00
6662;DHT22;3367;48.714;8.994;2023-05-10T10:44:28;17.20;1.00
6662;DHT22;3367;48.714;8.994;2023-05-10T10:47:04;16.90;1.00
6662;DHT22;3367;48.714;8.994;2023-05-10T10:49:37;16.70;1.00
6662;DHT22;3367;48.714;8.994;2023-05-10T10:52:24;16.30;1.00
6662;DHT22;3367;48.714;8.994;2023-05-10T10:54:58;15.80;1.00
6662;DHT22;3367;48.714;8.994;2023-05-10T10:57:26;15.80;1.00
6662;DHT22;3367;48.714;8.994;2023-05-10T11:00:23;15.70;1.00
6662;DHT22;3367;48.714;8.994;2023-05-10T11:02:51;15.60;1.00
6662;DHT22;3367;48.714;8.994;2023-05-10T11:05:33;15.50;1.00
6662;DHT22;3367;48.714;8.994;2023-05-10T11:08:02;15.40;1.00
6662;DHT22;3367;48.714;8.994;2023-05-10T11:10:32;15.30;1.00
6662;DHT22;3367;48.714;8.994;2023-05-10T11:13:00;15.30;1.00
6662;DHT22;3367;48.714;8.994;2023-05-10T11:15:31;15.30;1.00
6662;DHT22;3367;48.714;8.994;2023-05-10T11:17:59;15.40;9.50
6662;DHT22;3367;48.714;8.994;2023-05-10T11:20:28;15.40;99.90
6662;DHT22;3367;48.714;8.994;2023-05-10T11:23:11;15.40;99.90
6662;DHT22;3367;48.714;8.994;2023-05-10T11:25:41;15.40;93.50
6662;DHT22;3367;48.714;8.994;2023-05-10T11:28:09;15.50;59.90
6662;DHT22;3367;48.714;8.994;2023-05-10T11:30:38;15.60;21.60
6662;DHT22;3367;48.714;8.994;2023-05-10T11:33:05;15.70;7.00
6662;DHT22;3367;48.714;8.994;2023-05-10T11:35:37;15.60;1.00
6662;DHT22;3367;48.714;8.994;2023-05-10T11:38:05;15.70;9.80
6662;DHT22;3367;48.714;8.994;2023-05-10T11:40:32;15.70;1.00
6662;DHT22;3367;48.714;8.994;2023-05-10T11:42:59;15.80;1.00
6662;DHT22;3367;48.714;8.994;2023-05-10T11:45:26;16.00;1.60
6662;DHT22;3367;48.714;8.994;2023-05-10T11:47:55;16.10;1.00
6662;DHT22;3367;48.714;8.994;2023-05-10T11:50:23;16.30;1.00
6662;DHT22;3367;48.714;8.994;2023-05-10T11:52:53;16.50;1.00
6662;DHT22;3367;48.714;8.994;2023-05-10T11:55:20;16.70;1.00
6662;DHT22;3367;48.714;8.994;2023-05-10T11:57:47;16.80;1.00
6662;DHT22;3367;48.714;8.994;2023-05-10T12:00:14;17.00;1.00
6662;DHT22;3367;48.714;8.994;2023-05-10T12:02:41;17.10;1.00
6662;DHT22;3367;48.714;8.994;2023-05-10T12:05:10;17.10;1.00
6662;DHT22;3367;48.714;8.994;2023-05-10T12:07:37;17.10;1.00
6662;DHT22;3367;48.714;8.994;2023-05-10T12:10:08;17.10;1.00
6662;DHT22;3367;48.714;8.994;2023-05-10T12:12:38;17.10;1.00
6662;DHT22;3367;48.714;8.994;2023-05-10T12:15:11;17.20;1.00
6662;DHT22;3367;48.714;8.994;2023-05-10T12:17:38;17.20;1.00
6662;DHT22;3367;48.714;8.994;2023-05-10T12:20:20;17.30;1.00
6662;DHT22;3367;48.714;8.994;2023-05-10T12:22:49;17.30;1.00
6662;DHT22;3367;48.714;8.994;2023-05-10T12:25:17;17.20;1.00
6662;DHT22;3367;48.714;8.994;2023-05-10T12:27:51;17.00;1.00
6662;DHT22;3367;48.714;8.994;2023-05-10T12:30:22;16.90;1.00
6662;DHT22;3367;48.714;8.994;2023-05-10T12:32:49;16.50;1.00
6662;DHT22;3367;48.714;8.994;2023-05-10T12:35:16;16.50;1.00
6662;DHT22;3367;48.714;8.994;2023-05-10T12:37:47;16.40;1.00
6662;DHT22;3367;48.714;8.994;2023-05-10T12:40:14;16.40;1.00
6662;DHT22;3367;48.714;8.994;2023-05-10T12:42:41;16.50;1.00
6662;DHT22;3367;48.714;8.994;2023-05-10T12:45:09;16.40;1.00
6662;DHT22;3367;48.714;8.994;2023-05-10T12:47:36;16.40;1.00
6662;DHT22;3367;48.714;8.994;2023-05-10T12:50:04;16.50;1.00
6662;DHT22;3367;48.714;8.994;2023-05-10T12:52:31;16.40;1.00
6662;DHT22;3367;48.714;8.994;2023-05-10T12:55:00;16.60;1.00
6662;DHT22;3367;48.714;8.994;2023-05-10T12:57:27;16.70;1.00
6662;DHT22;3367;48.714;8.994;2023-05-10T12:59:54;16.60;1.00
6662;DHT22;3367;48.714;8.994;2023-05-10T13:02:20;16.60;1.00
6662;DHT22;3367;48.714;8.994;2023-05-10T13:04:48;16.70;1.00
6662;DHT22;3367;48.714;8.994;2023-05-10T13:07:15;16.70;1.00
6662;DHT22;3367;48.714;8.994;2023-05-10T13:09:42;16.80;1.00
6662;DHT22;3367;48.714;8.994;2023-05-10T13:12:10;16.90;1.00
6662;DHT22;3367;48.714;8.994;2023-05-10T13:14:36;17.00;1.00
6662;DHT22;3367;48.714;8.994;2023-05-10T13:17:05;17.10;1.00
6662;DHT22;3367;48.714;8.994;2023-05-10T13:19:32;17.20;1.00
6662;DHT22;3367;48.714;8.994;2023-05-10T13:21:59;17.20;1.00
6662;DHT22;3367;48.714;8.994;2023-05-10T13:24:25;17.20;1.00
6662;DHT22;3367;48.714;8.994;2023-05-10T13:26:52;17.00;1.00
6662;DHT22;3367;48.714;8.994;2023-05-10T13:29:20;17.10;1.00
6662;DHT22;3367;48.714;8.994;2023-05-10T13:31:48;17.10;1.00
6662;DHT22;3367;48.714;8.994;2023-05-10T13:34:14;17.20;1.00
6662;DHT22;3367;48.714;8.994;2023-05-10T13:36:41;17.40;1.00
6662;DHT22;3367;48.714;8.994;2023-05-10T13:39:08;17.60;1.00
6662;DHT22;3367;48.714;8.994;2023-05-10T13:41:34;17.60;1.00
6662;DHT22;3367;48.714;8.994;2023-05-10T13:44:02;17.60;1.00
6662;DHT22;3367;48.714;8.994;2023-05-10T13:46:30;17.70;1.00
6662;DHT22;3367;48.714;8.994;2023-05-10T13:48:57;17.70;1.00
6662;DHT22;3367;48.714;8.994;2023-05-10T13:51:23;17.70;1.00
6662;DHT22;3367;48.714;8.994;2023-05-10T13:53:50;17.70;1.00
6662;DHT22;3367;48.714;8.994;2023-05-10T13:56:17;17.70;1.00
6662;DHT22;3367;48.714;8.994;2023-05-10T13:58:44;17.70;1.00
6662;DHT22;3367;48.714;8.994;2023-05-10T14:01:10;17.70;1.00
6662;DHT22;3367;48.714;8.994;2023-05-10T14:03:39;17.50;1.00
6662;DHT22;3367;48.714;8.994;2023-05-10T14:06:07;17.50;1.00
6662;DHT22;3367;48.714;8.994;2023-05-10T14:08:34;17.50;1.00
6662;DHT22;3367;48.714;8.994;2023-05-10T14:11:01;17.50;1.00
6662;DHT22;3367;48.714;8.994;2023-05-10T14:13:28;17.60;1.00
6662;DHT22;3367;48.714;8.994;2023-05-10T14:15:55;17.60;1.00
6662;DHT22;3367;48.714;8.994;2023-05-10T14:18:22;17.50;1.00
6662;DHT22;3367;48.714;8.994;2023-05-10T14:20:50;17.50;1.00
6662;DHT22;3367;48.714;8.994;2023-05-10T14:23:17;17.50;1.00
6662;DHT22;3367;48.714;8.994;2023-05-10T14:25:45;17.60;1.00
6662;DHT22;3367;48.714;8.994;2023-05-10T14:28:11;17.50;1.00
6662;DHT22;3367;48.714;8.994;2023-05-10T14:30:38;17.60;1.00
6662;DHT22;3367;48.714;8.994;2023-05-10T14:33:05;17.60;1.00
6662;DHT22;3367;48.714;8.994;2023-05-10T14:35:33;17.70;1.00
6662;DHT22;3367;48.714;8.994;2023-05-10T14:38:02;17.60;1.00
6662;DHT22;3367;48.714;8.994;2023-05-10T14:40:29;17.50;1.00
6662;DHT22;3367;48.714;8.994;2023-05-10T14:42:56;17.50;1.00
6662;DHT22;3367;48.714;8.994;2023-05-10T14:45:23;17.60;1.00
6662;DHT22;3367;48.714;8.994;2023-05-10T14:47:50;17.60;1.00
6662;DHT22;3367;48.714;8.994;2023-05-10T14:50:17;17.60;1.00
6662;DHT22;3367;48.714;8.994;2023-05-10T14:52:44;17.70;1.00
6662;DHT22;3367;48.714;8.994;2023-05-10T14:55:14;17.60;1.00
6662;DHT22;3367;48.714;8.994;2023-05-10T14:57:41;17.60;1.00
6662;DHT22;3367;48.714;8.994;2023-05-10T15:00:10;17.50;1.00
6662;DHT22;3367;48.714;8.994;2023-05-10T15:02:37;17.50;1.00
6662;DHT22;3367;48.714;8.994;2023-05-10T15:05:05;17.30;1.00
6662;DHT22;3367;48.714;8.994;2023-05-10T15:07:32;17.30;1.00
6662;DHT22;3367;48.714;8.994;2023-05-10T15:09:59;17.30;1.00
6662;DHT22;3367;48.714;8.994;2023-05-10T15:12:27;17.20;1.00
6662;DHT22;3367;48.714;8.994;2023-05-10T15:14:54;17.30;1.00
6662;DHT22;3367;48.714;8.994;2023-05-10T15:17:21;17.50;1.00
6662;DHT22;3367;48.714;8.994;2023-05-10T15:19:48;17.50;1.00
6662;DHT22;3367;48.714;8.994;2023-05-10T15:22:15;17.50;1.00
6662;DHT22;3367;48.714;8.994;2023-05-10T15:24:42;17.40;1.00
6662;DHT22;3367;48.714;8.994;2023-05-10T15:27:09;17.20;1.00
6662;DHT22;3367;48.714;8.994;2023-05-10T15:29:38;17.10;1.00
6662;DHT22;3367;48.714;8.994;2023-05-10T15:32:05;17.10;1.00
6662;DHT22;3367;48.714;8.994;2023-05-10T15:34:32;17.30;1.00
6662;DHT22;3367;48.714;8.994;2023-05-10T15:36:59;17.30;1.00
6662;DHT22;3367;48.714;8.994;2023-05-10T15:39:26;17.20;1.00
6662;DHT22;3367;48.714;8.994;2023-05-10T15:41:53;17.00;1.00
6662;DHT22;3367;48.714;8.994;2023-05-10T15:44:20;17.00;1.00
6662;DHT22;3367;48.714;8.994;2023-05-10T15:46:59;16.90;1.00
6662;DHT22;3367;48.714;8.994;2023-05-10T15:49:26;16.80;1.00
6662;DHT22;3367;48.714;8.994;2023-05-10T15:51:59;16.80;1.00
6662;DHT22;3367;48.714;8.994;2023-05-10T15:54:31;16.90;1.00
6662;DHT22;3367;48.714;8.994;2023-05-10T15:56:58;16.90;1.00
6662;DHT22;3367;48.714;8.994;2023-05-10T15:59:26;17.00;1.00
6662;DHT22;3367;48.714;8.994;2023-05-10T16:01:55;17.00;1.00
6662;DHT22;3367;48.714;8.994;2023-05-10T16:04:22;17.10;1.00
6662;DHT22;3367;48.714;8.994;2023-05-10T16:06:49;17.00;1.00
6662;DHT22;3367;48.714;8.994;2023-05-10T16:09:16;16.90;1.00
6662;DHT22;3367;48.714;8.994;2023-05-10T16:11:42;16.80;1.00
6662;DHT22;3367;48.714;8.994;2023-05-10T16:14:10;16.60;1.00
6662;DHT22;3367;48.714;8.994;2023-05-10T16:16:39;16.50;1.00
6662;DHT22;3367;48.714;8.994;2023-05-10T16:19:08;16.40;1.00
6662;DHT22;3367;48.714;8.994;2023-05-10T16:21:35;16.30;1.00
6662;DHT22;3367;48.714;8.994;2023-05-10T16:24:03;16.10;1.00